• Join FlightAware (Why Join?)
  • Login
  • US Flag 
08:10AM EDT


 

Airport Tracker/Info


-or-


 

Live Flight TrackerFlight Track Log ✈ FDX1627 ✈ 04-Jun-2012 ✈ KORD - KIND

Flight Track Log - Related Links

Times and Time Zones

All times are in EDT time to prevent confusion due to time zone crossing. See the FDX1627 flight status page for this flight to view local times or setup timezone preferences in your user account.

Time Position Orientation Groundspeed Altitude Reporting Facility
EDT Latitude Longitude Course Direction KTS MPH feet Rate Location/Type
12:22AM 41.9667 -87.8333 160° South 166 191 3,300  Level Chicago TRACON
12:27AM 41.5686 -87.6431 156° South 348 400 13,000 1,920 Climbing Chicago Center
12:28AM 41.4781 -87.5900 157° South 379 436 14,900 1,980 Climbing Chicago Center
12:29AM 41.3689 -87.5294 158° South 403 464 17,000 1,020 Climbing Chicago Center
12:30AM 41.2614 -87.4717 157° South 419 482 17,000  Level Chicago Center
12:31AM 41.1500 -87.4086 158° South 424 488 17,000  Level Chicago Center
12:32AM 41.0406 -87.3486 157° South 424 488 17,000 -60 Level Chicago Center
12:33AM 40.9311 -87.2886 158° South 424 488 16,900 -60 Descending Chicago Center
12:34AM 40.8214 -87.2289 158° South 424 488 16,900  Level Chicago Center
12:35AM 40.7119 -87.1694 158° South 424 488 16,900  Level Chicago Center
12:36AM 40.6003 -87.1103 159° South 424 488 16,900 -240 Level Chicago Center
12:37AM 40.4825 -87.0514 158° South 429 494 16,500 -600 Descending Chicago Center
12:38AM 40.3769 -86.9950 158° South 412 474 15,700 -840 Descending Chicago Center
12:39AM 40.2778 -86.9414 145° Southeast 397 457 14,900 -840 Descending Chicago Center
12:42AM 40.0833 -86.7667 133° Southeast 370 426 13,000 -600 Descending Indianapolis TRACON
12:43AM 40.0000 -86.6500 131° Southeast 369 425 13,000 -540 Level Indianapolis TRACON
12:44AM 39.9333 -86.5500 131° Southeast 369 425 11,900 -1,320 Descending Indianapolis TRACON
12:45AM 39.8667 -86.4500 180° South 342 394 10,400 -1,800 Descending Indianapolis TRACON
12:46AM 39.7833 -86.4500 191° South 312 359 8,400 -1,680 Descending Indianapolis TRACON
12:47AM 39.7167 -86.4667 218° Southwest 276 318 7,100 -1,200 Descending Indianapolis TRACON
12:48AM 39.6667 -86.5167 207° Southwest 238 274 6,100 -1,200 Descending Indianapolis TRACON
12:49AM 39.6167 -86.5500 131° Southeast 227 261 4,900 -1,320 Descending Indianapolis TRACON
12:50AM 39.5833 -86.5000 90° East 206 237 3,800 -1,080 Descending Indianapolis TRACON
12:50AM 39.5833 -86.4500 38° Northeast 177 204 3,000 -480 Descending Indianapolis TRACON
12:51AM 39.6167 -86.4167 38° Northeast 167 192 3,000 -360 Level Indianapolis TRACON
12:52AM 39.6500 -86.3833 38° Northeast 164 189 2,400 -720 Descending Indianapolis TRACON